Time;durP1;ratioP1;P1;durP2;ratioP2;P2;SDS_P1;SDS_P2;PMS_P1;PMS_P2;Temp;Humidity;BMP_temperature;BMP_pressure;BME280_temperature;BME280_humidity;BME280_pressure;Samples;Min_cycle;Max_cycle;Signal;HPM_P1;HPM_P2
2023/12/31 00:01:03;;;;;;;129.27;78.70;;;;;;;3.33;80.37;98059.53;10358833;28;20076;-49
2023/12/31 00:06:03;;;;;;;134.85;80.55;;;;;;;3.06;80.18;97971.47;10357380;28;20090;-48
2023/12/31 00:11:02;;;;;;;;;;;;;;;3.35;80.55;98028.78;10346588;28;20068;-50
2023/12/31 00:16:01;;;;;;;122.80;76.57;;;;;;;3.26;80.58;98018.22;10360365;28;19951;-50
2023/12/31 00:21:00;;;;;;;117.53;75.65;;;;;;;3.28;80.07;98029.41;10351050;28;20080;-51
2023/12/31 00:25:59;;;;;;;124.00;76.45;;;;;;;1.83;80.18;97786.44;10359898;28;20048;-50
2023/12/31 00:30:58;;;;;;;144.23;82.03;;;;;;;3.00;79.81;97988.38;10357236;28;20520;-50
2023/12/31 00:35:57;;;;;;;140.63;85.80;;;;;;;3.28;79.67;98049.94;10356761;28;20504;-49
2023/12/31 00:40:56;;;;;;;122.00;73.90;;;;;;;3.21;79.82;98041.16;10335318;28;20116;-49
2023/12/31 00:45:55;;;;;;;132.15;82.00;;;;;;;1.86;79.96;97835.19;10341067;28;20068;-49
2023/12/31 00:50:54;;;;;;;120.93;73.65;;;;;;;3.10;80.44;98045.09;10346040;28;20036;-49
2023/12/31 00:55:53;;;;;;;124.90;73.45;;;;;;;3.10;80.51;98037.41;10340913;28;20120;-49
2023/12/31 01:00:52;;;;;;;150.27;84.82;;;;;;;2.49;80.20;97947.41;10340932;28;20076;-51
2023/12/31 01:05:51;;;;;;;131.88;76.65;;;;;;;3.06;80.16;98040.69;10360036;28;20052;-49
2023/12/31 01:10:50;;;;;;;118.47;70.05;;;;;;;2.92;80.56;98010.31;10351828;28;20056;-49
2023/12/31 01:15:49;;;;;;;125.75;73.88;;;;;;;2.68;80.83;97983.88;10353832;28;20583;-52
2023/12/31 01:20:48;;;;;;;160.90;78.82;;;;;;;2.63;80.69;97982.84;10342324;28;20855;-48
2023/12/31 01:25:54;;;;;;;134.23;76.78;;;;;;;2.66;80.29;98004.31;10396568;28;20521;-48
2023/12/31 01:30:53;;;;;;;;;;;;;;;1.81;79.83;97866.50;10396803;28;20056;-49
2023/12/31 01:35:51;;;;;;;112.80;69.43;;;;;;;2.52;80.38;98014.09;10398631;28;19916;-49
2023/12/31 01:40:55;;;;;;;114.88;69.00;;;;;;;2.43;80.60;98044.50;10398798;28;20021;-49
2023/12/31 01:45:53;;;;;;;114.70;67.65;;;;;;;1.21;80.31;97842.22;10398262;28;20064;-48
2023/12/31 01:50:53;;;;;;;112.65;66.50;;;;;;;2.26;80.72;98030.25;10399136;28;20035;-48
2023/12/31 01:55:53;;;;;;;111.80;66.03;;;;;;;2.22;80.80;98024.13;10394903;28;20065;-49
2023/12/31 02:00:52;;;;;;;110.47;66.28;;;;;;;2.25;81.55;98041.28;10397947;28;20145;-49
2023/12/31 02:05:52;;;;;;;117.18;68.82;;;;;;;2.11;81.43;98016.06;10396951;28;20569;-48
2023/12/31 02:10:51;;;;;;;;;;;;;;;2.20;81.34;98041.13;10397374;28;20061;-49
2023/12/31 02:15:52;;;;;;;131.25;76.50;;;;;;;2.05;81.11;98031.19;10397172;28;19956;-50
2023/12/31 02:20:51;;;;;;;130.15;76.82;;;;;;;1.98;81.67;98024.13;10393033;28;20147;-49
2023/12/31 02:26:10;;;;;;;134.80;81.32;;;;;;;1.57;82.07;97959.47;10396093;28;20149;-49
2023/12/31 02:31:09;;;;;;;131.30;81.73;;;;;;;2.03;81.67;98039.63;10394254;28;20147;-49
2023/12/31 02:36:08;;;;;;;134.07;79.50;;;;;;;1.72;82.02;97974.53;10374571;28;20036;-49
2023/12/31 02:41:07;;;;;;;128.73;77.93;;;;;;;1.74;82.08;97976.31;10368551;28;20065;-48
2023/12/31 02:46:06;;;;;;;125.70;76.07;;;;;;;2.10;81.56;98028.81;10364150;28;20032;-48
2023/12/31 02:51:07;;;;;;;127.43;76.68;;;;;;;2.10;81.81;98027.13;10368247;28;20765;-48
2023/12/31 02:56:06;;;;;;;122.43;75.85;;;;;;;1.98;81.52;98002.78;10365036;28;20069;-48
2023/12/31 03:01:05;;;;;;;142.48;84.95;;;;;;;0.73;81.94;97828.47;10368447;28;20854;-48
2023/12/31 03:06:04;;;;;;;146.23;84.47;;;;;;;1.88;82.16;98037.34;10366194;28;20037;-49
2023/12/31 03:11:03;;;;;;;127.88;74.50;;;;;;;1.66;82.10;97980.28;10367005;28;20528;-50
2023/12/31 03:16:06;;;;;;;120.13;74.03;;;;;;;2.02;82.33;98036.22;10367695;28;21189;-48
2023/12/31 03:21:05;;;;;;;114.75;69.88;;;;;;;0.98;81.63;97849.03;10364926;28;20063;-49
2023/12/31 03:26:06;;;;;;;109.60;68.88;;;;;;;1.73;81.64;97969.44;10366689;28;20133;-50
2023/12/31 03:31:05;;;;;;;116.75;66.05;;;;;;;2.14;82.07;98026.41;10363600;28;20063;-49
2023/12/31 03:36:05;;;;;;;92.20;53.95;;;;;;;2.11;82.19;98028.88;10366801;28;20031;-49
2023/12/31 03:41:04;;;;;;;96.57;56.25;;;;;;;2.07;82.24;98006.53;10366595;28;20057;-49
2023/12/31 03:46:03;;;;;;;96.80;57.10;;;;;;;2.05;82.11;97997.91;10362077;28;20463;-49
2023/12/31 03:51:02;;;;;;;108.75;64.72;;;;;;;2.15;81.59;98007.66;10366664;28;20569;-49
2023/12/31 03:56:02;;;;;;;103.68;61.55;;;;;;;1.98;81.92;97998.53;10364112;28;20127;-48
2023/12/31 04:01:01;;;;;;;;;;;;;;;2.26;81.57;98041.34;10364500;28;20056;-49
2023/12/31 04:05:59;;;;;;;104.30;59.65;;;;;;;1.73;81.71;97943.00;10365416;28;19970;-49
2023/12/31 04:10:59;;;;;;;101.75;58.42;;;;;;;2.20;81.39;98009.53;10364333;28;20082;-48
2023/12/31 04:15:58;;;;;;;97.07;60.28;;;;;;;2.41;80.88;98043.59;10364984;28;20056;-48
2023/12/31 04:20:56;;;;;;;103.00;64.43;;;;;;;2.26;81.92;98048.16;10363871;28;20059;-50
2023/12/31 04:25:55;;;;;;;108.72;68.03;;;;;;;2.12;82.58;98045.09;10364128;28;20025;-51
2023/12/31 04:30:54;;;;;;;118.28;71.47;;;;;;;2.19;82.02;98051.31;10362708;28;20132;-49
2023/12/31 04:35:53;;;;;;;104.78;63.85;;;;;;;1.92;81.92;98008.50;10361865;28;20021;-48
2023/12/31 04:40:52;;;;;;;102.70;64.57;;;;;;;2.11;82.38;98046.78;10363323;28;20398;-48
2023/12/31 04:45:51;;;;;;;102.07;64.78;;;;;;;2.06;81.85;98034.63;10360663;28;20075;-50
2023/12/31 04:50:50;;;;;;;94.90;59.08;;;;;;;2.16;81.65;98047.81;10356830;28;20068;-49
2023/12/31 04:55:49;;;;;;;81.28;51.92;;;;;;;1.90;81.55;97998.25;10360953;28;20032;-49
2023/12/31 05:00:48;;;;;;;77.18;48.60;;;;;;;2.01;81.23;98003.75;10363536;28;20047;-49
2023/12/31 05:05:47;;;;;;;86.05;50.85;;;;;;;2.15;81.54;98023.03;10362968;28;20028;-49
2023/12/31 05:10:46;;;;;;;81.53;50.15;;;;;;;2.33;81.74;98055.25;10358230;28;20037;-49
2023/12/31 05:15:45;;;;;;;77.43;45.67;;;;;;;1.98;81.90;97993.41;10362697;28;20013;-50
2023/12/31 05:20:44;;;;;;;87.00;55.92;;;;;;;2.21;82.03;98037.75;10358855;28;20155;-49
2023/12/31 05:25:43;;;;;;;102.22;66.72;;;;;;;2.23;81.84;98040.34;10360587;28;20135;-49
2023/12/31 05:30:43;;;;;;;111.47;69.22;;;;;;;2.11;81.90;98010.06;10359388;28;20036;-50
2023/12/31 05:35:42;;;;;;;96.47;63.17;;;;;;;2.03;81.72;98009.78;10361829;28;20116;-51
2023/12/31 05:40:41;;;;;;;93.30;58.70;;;;;;;2.14;81.45;98028.97;10362163;28;20056;-49
2023/12/31 05:45:40;;;;;;;74.78;48.35;;;;;;;2.03;82.10;98026.84;10360191;28;20124;-50
2023/12/31 05:50:39;;;;;;;105.90;65.65;;;;;;;2.02;82.21;98041.34;10362709;28;20793;-48
2023/12/31 05:55:38;;;;;;;96.20;63.38;;;;;;;1.89;81.87;98016.09;10359433;28;20858;-49
2023/12/31 06:00:37;;;;;;;96.75;58.25;;;;;;;1.47;81.99;97959.94;10361236;28;20056;-50
2023/12/31 06:05:36;;;;;;;100.47;58.40;;;;;;;1.92;81.68;98039.22;10362463;28;20236;-49
2023/12/31 06:10:35;;;;;;;147.10;84.75;;;;;;;1.57;81.87;97981.63;10364777;28;20115;-49
2023/12/31 06:15:34;;;;;;;148.50;87.55;;;;;;;1.29;81.97;97952.44;10370236;28;20054;-49
2023/12/31 06:20:33;;;;;;;141.73;92.35;;;;;;;1.61;82.28;97999.69;10368449;28;20035;-50
2023/12/31 06:25:32;;;;;;;144.50;91.07;;;;;;;1.80;82.36;98047.31;10367526;28;20033;-49
2023/12/31 06:30:31;;;;;;;133.48;85.78;;;;;;;1.80;82.28;98031.09;10368235;28;20471;-48
2023/12/31 06:35:30;;;;;;;134.25;84.53;;;;;;;1.79;82.17;98029.38;10364963;28;20500;-49
2023/12/31 06:40:29;;;;;;;117.40;73.78;;;;;;;1.99;82.39;98065.94;10367570;28;20553;-48
2023/12/31 06:45:28;;;;;;;122.38;73.63;;;;;;;2.02;81.92;98069.50;10364682;28;20708;-49
2023/12/31 06:50:27;;;;;;;106.30;67.43;;;;;;;2.02;81.85;98064.38;10366936;28;20406;-49
2023/12/31 06:55:26;;;;;;;119.35;71.72;;;;;;;2.00;81.59;98060.88;10366727;28;20116;-49
2023/12/31 07:00:25;;;;;;;119.90;72.70;;;;;;;2.04;81.48;98065.28;10366393;28;20033;-49
2023/12/31 07:05:24;;;;;;;119.95;73.45;;;;;;;2.07;81.15;98059.44;10368415;28;20116;-49
2023/12/31 07:10:23;;;;;;;;;;;;;;;2.15;81.96;98089.59;10366856;28;20116;-48
2023/12/31 07:15:22;;;;;;;153.73;94.20;;;;;;;2.25;81.70;98079.69;10367336;28;19920;-50
2023/12/31 07:20:21;;;;;;;169.07;103.45;;;;;;;2.34;81.84;98059.53;10365730;28;20039;-49
2023/12/31 07:25:21;;;;;;;203.82;126.30;;;;;;;2.43;81.55;98059.00;10365845;28;20056;-48
2023/12/31 07:30:20;;;;;;;214.30;128.07;;;;;;;0.72;81.24;97753.53;10366325;28;20854;-49
2023/12/31 07:35:19;;;;;;;166.88;110.38;;;;;;;2.85;81.56;98080.16;10361671;28;20487;-49
2023/12/31 07:40:17;;;;;;;129.38;86.13;;;;;;;1.62;81.63;97845.44;10366124;28;20095;-48
2023/12/31 07:45:16;;;;;;;117.05;74.10;;;;;;;2.98;81.76;98040.41;10362518;28;20112;-48
2023/12/31 07:50:15;;;;;;;117.15;76.82;;;;;;;3.22;81.94;98048.91;10364718;28;20108;-49
2023/12/31 07:55:15;;;;;;;134.13;83.97;;;;;;;3.60;81.54;98082.63;10365969;28;20175;-49
2023/12/31 08:00:14;;;;;;;145.73;94.70;;;;;;;3.68;81.59;98058.88;10362121;28;20048;-49
2023/12/31 08:05:13;;;;;;;146.77;95.78;;;;;;;3.89;80.70;98092.06;10364614;28;20495;-49
2023/12/31 08:10:12;;;;;;;125.22;78.28;;;;;;;3.45;81.06;98048.78;10361871;28;20407;-48
2023/12/31 08:15:11;;;;;;;108.07;71.63;;;;;;;3.66;80.73;98087.09;10361644;28;20032;-49
2023/12/31 08:20:11;;;;;;;110.03;70.72;;;;;;;3.58;80.83;98065.44;10363091;28;20429;-48
2023/12/31 08:25:10;;;;;;;105.80;70.10;;;;;;;3.82;80.72;98062.75;10363644;28;20144;-49
2023/12/31 08:30:09;;;;;;;108.85;74.65;;;;;;;4.07;79.87;98048.97;10363433;28;20017;-49
2023/12/31 08:35:10;;;;;;;;;;;;;;;4.62;79.61;98089.09;10359471;28;20060;-49
2023/12/31 08:40:10;;;;;;;;;;;;;;;4.87;79.28;98090.59;10365096;28;20011;-51
2023/12/31 08:45:10;;;;;;;111.35;68.43;;;;;;;5.09;78.75;98089.50;10362082;28;20752;-51
2023/12/31 08:50:09;;;;;;;94.97;63.03;;;;;;;5.17;78.24;98050.25;10363517;28;20057;-51
2023/12/31 08:55:09;;;;;;;99.68;66.40;;;;;;;5.08;77.39;97990.00;10363873;28;20048;-51
2023/12/31 09:00:08;;;;;;;;;;;;;;;5.91;77.38;98083.78;10360976;28;20128;-50
2023/12/31 09:05:08;;;;;;;73.75;49.33;;;;;;;6.10;76.82;98062.72;10361183;28;21482;-51
2023/12/31 09:10:07;;;;;;;72.45;50.55;;;;;;;4.65;73.94;97764.44;10361166;28;20108;-50
2023/12/31 09:15:07;;;;;;;91.10;58.50;;;;;;;6.58;73.41;98051.66;10363101;28;20869;-49
2023/12/31 09:20:08;;;;;;;88.82;59.25;;;;;;;6.73;72.61;98034.78;10363400;28;20136;-49
2023/12/31 09:25:08;;;;;;;98.50;69.20;;;;;;;6.74;72.49;98026.19;10360557;28;20470;-49
2023/12/31 09:30:07;;;;;;;93.70;63.55;;;;;;;7.14;72.17;98056.13;10354411;28;20124;-50
2023/12/31 09:35:06;;;;;;;89.13;62.83;;;;;;;7.18;72.24;98045.03;10361090;28;20439;-50
2023/12/31 09:40:06;;;;;;;89.75;61.50;;;;;;;6.33;71.70;97879.38;10363123;28;20108;-49
2023/12/31 09:45:07;;;;;;;93.85;63.63;;;;;;;7.31;70.92;97984.16;10365169;28;20466;-51
2023/12/31 09:50:07;;;;;;;88.25;62.17;;;;;;;7.82;70.33;98031.41;10370019;28;20052;-49
2023/12/31 09:55:07;;;;;;;87.93;61.67;;;;;;;8.00;68.68;98017.91;10370689;28;20051;-51
2023/12/31 10:00:08;;;;;;;87.57;62.28;;;;;;;8.15;68.44;98001.72;10364216;28;20057;-51
2023/12/31 10:05:07;;;;;;;70.82;50.75;;;;;;;8.37;66.93;97998.53;10367055;28;20057;-49
2023/12/31 10:10:09;;;;;;;70.93;51.67;;;;;;;8.46;66.48;97967.63;10365898;28;20111;-49
2023/12/31 10:15:08;;;;;;;73.20;49.15;;;;;;;8.71;65.85;97952.34;10369690;28;20049;-55
2023/12/31 10:20:08;;;;;;;70.20;47.72;;;;;;;9.09;64.94;97965.63;10365241;28;20057;-50
2023/12/31 10:25:13;;;;;;;;;;;;;;;9.35;64.00;97958.09;10368745;28;20120;-51
2023/12/31 10:30:13;;;;;;;49.30;36.78;;;;;;;9.38;62.55;97925.31;10368042;28;19955;-51
2023/12/31 10:35:11;;;;;;;43.28;30.67;;;;;;;9.61;62.22;97941.84;10366763;28;20079;-50
2023/12/31 10:40:19;;;;;;;37.78;28.50;;;;;;;9.73;59.91;97934.13;10367953;28;20439;-49
2023/12/31 10:45:20;;;;;;;45.13;33.50;;;;;;;10.01;59.98;97918.72;10367322;28;20478;-51
2023/12/31 10:50:25;;;;;;;44.42;31.08;;;;;;;10.10;59.22;97913.56;10365843;28;20107;-49
2023/12/31 10:55:26;;;;;;;34.05;26.77;;;;;;;9.40;58.21;97743.16;10367372;28;20059;-49
2023/12/31 11:00:25;;;;;;;27.08;22.00;;;;;;;10.52;56.27;97906.75;10366549;28;20072;-49
2023/12/31 11:05:24;;;;;;;;;;;;;;;10.65;56.29;97880.81;10367933;28;20056;-49
2023/12/31 11:10:23;;;;;;;25.92;20.35;;;;;;;10.68;55.25;97865.22;10367855;28;20407;-50
2023/12/31 11:15:24;;;;;;;27.27;20.70;;;;;;;10.83;55.08;97844.47;10367880;28;20124;-50
2023/12/31 11:20:54;;;;;;;27.38;21.63;;;;;;;11.11;55.62;97854.88;10366450;28;20491;-52
2023/12/31 11:25:53;;;;;;;19.77;15.60;;;;;;;11.22;56.12;97832.31;10367456;28;20526;-51
2023/12/31 11:30:58;;;;;;;;;;;;;;;11.24;53.84;97838.38;10366299;28;20490;-52
2023/12/31 11:36:04;;;;;;;13.93;10.57;;;;;;;11.38;53.58;97825.34;10367112;28;20378;-50
2023/12/31 11:41:03;;;;;;;12.70;9.10;;;;;;;11.02;53.05;97751.88;10366479;28;20068;-51
2023/12/31 11:46:02;;;;;;;9.43;7.68;;;;;;;11.22;52.30;97733.59;10366088;28;20453;-49
2023/12/31 11:51:01;;;;;;;8.98;8.07;;;;;;;11.72;51.81;97774.09;10364568;28;20061;-51
2023/12/31 11:56:00;;;;;;;9.75;7.72;;;;;;;11.88;50.21;97793.09;10362561;28;20021;-49
2023/12/31 12:00:59;;;;;;;9.82;7.63;;;;;;;12.04;50.17;97799.03;10363987;28;20068;-49
2023/12/31 12:05:59;;;;;;;8.43;7.50;;;;;;;11.94;48.94;97772.25;10366198;28;20144;-50
2023/12/31 12:11:02;;;;;;;10.57;8.98;;;;;;;12.06;48.91;97784.31;10365791;28;20681;-51
2023/12/31 12:16:01;;;;;;;11.75;10.57;;;;;;;12.26;48.69;97769.41;10364090;28;20121;-51
2023/12/31 12:21:00;;;;;;;8.05;7.18;;;;;;;12.36;48.05;97748.56;10364105;28;20040;-51
2023/12/31 12:25:59;;;;;;;8.63;7.47;;;;;;;12.58;47.33;97765.75;10364879;28;20554;-51
2023/12/31 12:30:59;;;;;;;10.48;8.15;;;;;;;12.65;47.01;97757.00;10364165;28;20106;-52
2023/12/31 12:35:58;;;;;;;10.02;8.88;;;;;;;12.72;46.76;97750.84;10364063;28;20068;-50
2023/12/31 12:41:00;;;;;;;10.70;9.52;;;;;;;12.43;46.94;97666.97;10364177;28;20064;-50
2023/12/31 12:46:06;;;;;;;10.75;9.15;;;;;;;13.06;46.82;97747.03;10363929;28;20140;-52
2023/12/31 12:51:05;;;;;;;13.98;10.10;;;;;;;12.81;46.05;97689.13;10362967;28;20066;-50
2023/12/31 12:56:04;;;;;;;14.55;11.82;;;;;;;12.03;46.22;97552.84;10363501;28;20029;-49
2023/12/31 13:01:04;;;;;;;;;;;;;;;13.26;46.28;97739.00;10363403;28;20128;-50
2023/12/31 13:06:04;;;;;;;12.75;10.48;;;;;;;13.32;46.32;97731.09;10360129;28;20730;-51
2023/12/31 13:11:04;;;;;;;12.50;10.85;;;;;;;13.04;46.41;97687.13;10362667;28;20822;-53
2023/12/31 13:16:03;;;;;;;11.15;9.30;;;;;;;13.21;46.94;97714.72;10363386;28;20056;-49
2023/12/31 13:21:02;;;;;;;12.95;10.93;;;;;;;13.32;46.61;97731.94;10362131;28;20052;-49
2023/12/31 13:26:01;;;;;;;11.43;10.13;;;;;;;13.21;46.31;97720.81;10362479;28;20067;-52
2023/12/31 13:31:00;;;;;;;30.95;23.15;;;;;;;12.99;46.49;97693.28;10362438;28;20103;-51
2023/12/31 13:35:59;;;;;;;16.30;13.20;;;;;;;13.12;46.41;97711.34;10362503;28;20064;-50
2023/12/31 13:40:58;;;;;;;16.70;14.40;;;;;;;13.20;46.38;97733.84;10361149;28;20023;-49
2023/12/31 13:45:58;;;;;;;12.77;11.43;;;;;;;12.95;46.68;97695.03;10360521;28;20553;-49
2023/12/31 13:50:57;;;;;;;13.05;11.60;;;;;;;12.98;46.78;97710.66;10361991;28;20064;-49
2023/12/31 13:55:56;;;;;;;14.93;11.68;;;;;;;13.02;46.98;97719.28;10361492;28;20087;-51
2023/12/31 14:00:55;;;;;;;17.67;14.18;;;;;;;12.59;47.20;97668.53;10360373;28;20105;-52
2023/12/31 14:05:54;;;;;;;13.18;10.43;;;;;;;12.91;47.01;97730.69;10361384;28;20067;-51
2023/12/31 14:10:53;;;;;;;11.75;10.25;;;;;;;12.76;47.27;97727.38;10361637;28;20025;-50
2023/12/31 14:15:52;;;;;;;;;;;;;;;12.62;47.35;97725.75;10361463;28;20115;-51
2023/12/31 14:20:51;;;;;;;45.65;31.05;;;;;;;12.34;48.12;97701.72;10361345;28;19919;-50
2023/12/31 14:25:50;;;;;;;37.95;27.70;;;;;;;12.12;48.77;97711.44;10355605;28;20131;-51
2023/12/31 14:30:49;;;;;;;47.97;31.80;;;;;;;11.39;49.51;97646.09;10362302;28;20029;-51
2023/12/31 14:35:48;;;;;;;;;;;;;;;11.61;50.38;97724.78;10368983;28;20083;-50
2023/12/31 14:40:47;;;;;;;54.03;39.75;;;;;;;11.01;51.13;97709.47;10370869;28;19999;-51
2023/12/31 14:45:46;;;;;;;56.92;42.10;;;;;;;10.72;52.31;97706.91;10371756;28;20817;-50
2023/12/31 14:50:45;;;;;;;57.45;40.58;;;;;;;10.62;52.19;97700.88;10368408;28;20489;-50
2023/12/31 14:55:44;;;;;;;57.65;40.67;;;;;;;10.47;52.78;97725.97;10364438;28;20065;-49
2023/12/31 15:00:44;;;;;;;52.28;36.97;;;;;;;10.02;53.20;97697.47;10368408;28;20067;-52
2023/12/31 15:05:43;;;;;;;43.92;32.28;;;;;;;9.72;54.24;97696.59;10370149;28;20123;-51
2023/12/31 15:10:42;;;;;;;46.78;33.80;;;;;;;9.60;55.01;97709.50;10366329;28;20033;-49
2023/12/31 15:15:41;;;;;;;56.72;39.90;;;;;;;9.49;55.21;97726.78;10361502;28;21062;-49
2023/12/31 15:20:43;;;;;;;60.05;41.40;;;;;;;9.07;56.61;97702.44;10365353;28;20027;-49
2023/12/31 15:25:42;;;;;;;66.88;43.72;;;;;;;8.91;57.08;97720.47;10366509;28;20151;-49
2023/12/31 15:30:40;;;;;;;56.03;40.40;;;;;;;8.77;57.51;97729.88;10365589;28;20522;-49
2023/12/31 15:35:39;;;;;;;80.38;51.80;;;;;;;8.55;58.69;97728.88;10366723;28;20508;-48
2023/12/31 15:40:39;;;;;;;76.78;49.13;;;;;;;8.20;59.56;97728.63;10370292;28;20792;-52
2023/12/31 15:45:38;;;;;;;141.65;89.38;;;;;;;8.02;60.24;97732.78;10369708;28;20147;-51
2023/12/31 15:50:37;;;;;;;87.20;56.80;;;;;;;7.95;60.50;97736.19;10369794;28;20115;-53
2023/12/31 15:55:36;;;;;;;80.75;52.13;;;;;;;7.88;60.82;97749.91;10366973;28;20048;-52
2023/12/31 16:00:35;;;;;;;88.35;61.55;;;;;;;7.75;62.12;97750.63;10367012;28;20033;-52
2023/12/31 16:05:34;;;;;;;122.47;74.95;;;;;;;7.64;62.75;97748.81;10368127;28;20560;-50
2023/12/31 16:10:33;;;;;;;123.38;79.15;;;;;;;7.57;63.06;97739.25;10365414;28;20437;-49
2023/12/31 16:15:32;;;;;;;57.28;38.47;;;;;;;7.38;63.27;97726.94;10362662;28;20029;-50
2023/12/31 16:20:31;;;;;;;103.35;66.43;;;;;;;7.04;62.95;97670.66;10363448;28;20052;-49
2023/12/31 16:25:30;;;;;;;112.00;70.15;;;;;;;7.34;63.83;97741.53;10362584;28;20065;-49
2023/12/31 16:30:29;;;;;;;77.88;49.85;;;;;;;6.81;63.74;97667.78;10363996;28;20111;-49
2023/12/31 16:35:28;;;;;;;71.03;44.55;;;;;;;7.20;63.29;97738.81;10363746;28;20029;-49
2023/12/31 16:40:27;;;;;;;81.78;51.47;;;;;;;7.03;64.18;97730.84;10365172;28;20072;-49
2023/12/31 16:45:26;;;;;;;69.85;44.40;;;;;;;6.89;65.07;97726.34;10363405;28;20033;-49
2023/12/31 16:50:25;;;;;;;103.63;63.75;;;;;;;6.84;65.51;97741.75;10362992;28;20561;-49
2023/12/31 16:55:25;;;;;;;72.90;45.55;;;;;;;6.35;65.39;97664.63;10360817;28;20713;-50
2023/12/31 17:00:24;;;;;;;80.43;51.78;;;;;;;6.64;65.04;97715.72;10363653;28;20067;-49
2023/12/31 17:05:23;;;;;;;86.20;54.67;;;;;;;6.64;65.64;97749.25;10363482;28;21334;-50
2023/12/31 17:10:22;;;;;;;79.90;49.10;;;;;;;6.45;66.49;97729.19;10362983;28;20033;-50
2023/12/31 17:15:22;;;;;;;64.45;41.42;;;;;;;6.36;67.15;97728.19;10363166;28;20020;-49
2023/12/31 17:20:21;;;;;;;60.97;40.28;;;;;;;6.40;66.24;97719.69;10360995;28;20107;-48
2023/12/31 17:25:20;;;;;;;68.30;46.30;;;;;;;6.37;67.25;97740.25;10361396;28;20133;-50
2023/12/31 17:30:19;;;;;;;81.00;53.45;;;;;;;6.27;67.80;97729.78;10363506;28;20115;-50
2023/12/31 17:35:18;;;;;;;107.90;65.78;;;;;;;5.98;68.65;97702.72;10363624;28;20061;-50
2023/12/31 17:40:18;;;;;;;95.40;56.33;;;;;;;6.25;69.26;97747.78;10362360;28;20044;-50
2023/12/31 17:45:17;;;;;;;104.32;62.78;;;;;;;6.20;69.06;97733.97;10364232;28;20116;-49
2023/12/31 17:50:16;;;;;;;82.00;49.40;;;;;;;5.67;69.40;97685.88;10361521;28;20039;-51
2023/12/31 17:55:15;;;;;;;61.67;34.22;;;;;;;5.89;71.14;97730.88;10363191;28;20068;-50
2023/12/31 18:00:14;;;;;;;68.50;39.20;;;;;;;5.73;71.24;97722.03;10361248;28;20033;-49
2023/12/31 18:05:13;;;;;;;;;;;;;;;5.67;71.60;97724.50;10365426;28;20107;-50
2023/12/31 18:10:12;;;;;;;61.33;39.40;;;;;;;5.66;70.87;97727.03;10369407;28;19927;-51
2023/12/31 18:15:11;;;;;;;48.75;31.25;;;;;;;5.31;72.61;97728.13;10369564;28;20119;-49
2023/12/31 18:20:10;;;;;;;62.63;41.47;;;;;;;4.92;74.93;97711.03;10369286;28;20521;-50
2023/12/31 18:25:09;;;;;;;;;;;;;;;5.01;74.16;97717.22;10368426;28;20138;-49
2023/12/31 18:30:08;;;;;;;55.30;34.80;;;;;;;3.64;76.20;97542.16;10367714;28;19948;-50
2023/12/31 18:35:08;;;;;;;63.28;37.47;;;;;;;4.50;76.48;97672.41;10368758;28;20529;-49
2023/12/31 18:40:08;;;;;;;66.50;42.38;;;;;;;4.40;77.71;97709.03;10368603;28;20067;-50
2023/12/31 18:45:07;;;;;;;90.15;48.72;;;;;;;4.13;77.54;97681.91;10368543;28;20087;-50
2023/12/31 18:50:07;;;;;;;91.05;51.72;;;;;;;4.10;77.07;97670.66;10368803;28;20064;-49
2023/12/31 18:55:07;;;;;;;64.22;40.72;;;;;;;4.29;76.66;97707.09;10366764;28;20133;-49
2023/12/31 19:00:07;;;;;;;60.55;37.20;;;;;;;4.07;77.81;97692.88;10368145;28;20082;-49
2023/12/31 19:05:06;;;;;;;70.47;45.17;;;;;;;4.01;78.22;97689.28;10368506;28;20479;-50
2023/12/31 19:10:05;;;;;;;62.35;39.25;;;;;;;4.03;77.37;97685.06;10365612;28;20413;-49
2023/12/31 19:15:06;;;;;;;68.40;43.95;;;;;;;3.99;79.99;97694.41;10364742;28;20064;-49
2023/12/31 19:20:06;;;;;;;57.00;37.10;;;;;;;3.93;79.65;97668.56;10367440;28;20112;-48
2023/12/31 19:25:07;;;;;;;47.78;30.90;;;;;;;4.10;79.98;97698.91;10367517;28;20908;-49
2023/12/31 19:30:07;;;;;;;48.65;30.85;;;;;;;4.10;79.40;97680.94;10366715;28;20056;-49
2023/12/31 19:35:07;;;;;;;55.38;35.22;;;;;;;4.05;79.20;97688.53;10367237;28;20064;-50
2023/12/31 19:40:07;;;;;;;55.28;36.67;;;;;;;4.11;78.70;97686.13;10366395;28;20120;-52
2023/12/31 19:45:06;;;;;;;63.35;42.63;;;;;;;3.73;78.22;97645.03;10365624;28;20114;-49
2023/12/31 19:50:05;;;;;;;;;;;;;;;3.90;78.39;97690.75;10365762;28;20091;-49
2023/12/31 19:55:04;;;;;;;76.03;48.72;;;;;;;3.65;78.83;97679.88;10365780;28;20003;-49
2023/12/31 20:00:04;;;;;;;191.75;116.70;;;;;;;3.61;78.94;97683.19;10365560;28;20068;-48
2023/12/31 20:05:04;;;;;;;56.00;35.70;;;;;;;3.31;82.36;97645.69;10365367;28;20116;-49
2023/12/31 20:10:04;;;;;;;20.63;13.43;;;;;;;3.76;84.31;97629.69;10365065;28;20052;-49
2023/12/31 20:15:03;;;;;;;;;;;;;;;4.66;82.19;97677.06;10365993;28;20748;-49
2023/12/31 20:20:02;;;;;;;47.50;31.63;;;;;;;4.42;77.82;97633.72;10364525;28;20647;-50
2023/12/31 20:25:01;;;;;;;45.08;29.38;;;;;;;4.40;76.69;97675.63;10365322;28;20531;-49
2023/12/31 20:30:00;;;;;;;57.55;35.08;;;;;;;4.02;76.59;97652.53;10362581;28;20502;-50
2023/12/31 20:34:59;;;;;;;60.97;39.85;;;;;;;3.68;77.48;97658.56;10364697;28;20116;-52
2023/12/31 20:39:58;;;;;;;;;;;;;;;3.84;78.09;97709.44;10364047;28;20489;-49
2023/12/31 20:44:57;;;;;;;47.88;29.63;;;;;;;3.64;78.96;97690.97;10363166;28;20366;-49
2023/12/31 20:49:56;;;;;;;46.92;29.45;;;;;;;3.56;79.61;97679.63;10363624;28;20056;-52
2023/12/31 20:54:55;;;;;;;35.45;23.98;;;;;;;3.19;82.21;97625.72;10363942;28;20033;-49
2023/12/31 20:59:54;;;;;;;44.63;27.23;;;;;;;2.72;81.37;97511.69;10362118;28;20709;-49
2023/12/31 21:04:53;;;;;;;42.13;29.10;;;;;;;4.11;80.10;97723.78;10361816;28;20116;-50
2023/12/31 21:09:52;;;;;;;42.33;27.73;;;;;;;3.76;79.99;97680.16;10363229;28;20065;-50
2023/12/31 21:14:51;;;;;;;34.78;21.10;;;;;;;3.86;80.20;97705.19;10363257;28;20035;-50
2023/12/31 21:19:50;;;;;;;48.85;30.33;;;;;;;3.86;81.03;97728.31;10363220;28;20068;-49
2023/12/31 21:24:49;;;;;;;56.65;34.08;;;;;;;4.05;79.96;97719.34;10363058;28;20033;-50
2023/12/31 21:29:48;;;;;;;66.82;47.22;;;;;;;4.08;79.67;97729.72;10362062;28;20033;-50
2023/12/31 21:34:47;;;;;;;65.15;42.58;;;;;;;4.13;79.41;97717.84;10361218;28;20060;-51
2023/12/31 21:39:49;;;;;;;76.43;48.80;;;;;;;2.88;79.49;97511.25;10362881;28;20071;-52
2023/12/31 21:44:48;;;;;;;68.60;44.90;;;;;;;4.16;79.15;97720.47;10369190;28;20116;-52
2023/12/31 21:49:47;;;;;;;72.03;45.80;;;;;;;4.23;78.72;97719.78;10368229;28;20072;-51
2023/12/31 21:54:46;;;;;;;54.42;32.60;;;;;;;3.93;78.32;97691.69;10370101;28;20108;-50
2023/12/31 21:59:45;;;;;;;56.47;38.83;;;;;;;3.96;78.66;97689.19;10370378;28;20064;-51
2023/12/31 22:04:44;;;;;;;63.33;41.58;;;;;;;3.95;79.29;97707.13;10369692;28;20112;-50
2023/12/31 22:09:43;;;;;;;93.82;58.45;;;;;;;3.80;80.15;97675.13;10370042;28;20036;-52
2023/12/31 22:14:42;;;;;;;216.50;134.95;;;;;;;4.03;80.17;97682.50;10369912;28;20079;-51
2023/12/31 22:19:41;;;;;;;355.15;182.27;;;;;;;4.40;79.53;97703.91;10368548;28;20041;-50
2023/12/31 22:24:40;;;;;;;132.38;77.18;;;;;;;4.04;78.16;97622.63;10369793;28;20513;-50
2023/12/31 22:29:39;;;;;;;60.05;38.33;;;;;;;4.06;77.63;97639.81;10368857;28;20677;-49
2023/12/31 22:34:38;;;;;;;55.38;35.78;;;;;;;4.22;76.61;97648.72;10369457;28;20679;-49
2023/12/31 22:39:38;;;;;;;55.10;35.35;;;;;;;4.21;76.68;97703.47;10368655;28;20068;-49
2023/12/31 22:44:37;;;;;;;54.30;33.15;;;;;;;4.15;76.51;97674.22;10368398;28;20048;-50
2023/12/31 22:49:36;;;;;;;74.85;41.40;;;;;;;3.78;76.93;97640.00;10368173;28;20024;-50
2023/12/31 22:54:35;;;;;;;45.40;29.67;;;;;;;4.12;77.15;97687.84;10365483;28;20040;-59
2023/12/31 22:59:34;;;;;;;52.38;32.78;;;;;;;4.00;76.70;97660.19;10367573;28;20378;-50